sensor_id;sensor_type;location;lat;lon;timestamp;P1;P2;P0
56688;PMS5003;42565;53.342;-1.534;2023-06-19T00:00:18;11;9;
56688;PMS5003;42565;53.342;-1.534;2023-06-19T00:02:46;12;11;
56688;PMS5003;42565;53.342;-1.534;2023-06-19T00:05:13;13;13;
56688;PMS5003;42565;53.342;-1.534;2023-06-19T00:07:40;14;13;
56688;PMS5003;42565;53.342;-1.534;2023-06-19T00:10:07;13;13;
56688;PMS5003;42565;53.342;-1.534;2023-06-19T00:12:34;13;12;
56688;PMS5003;42565;53.342;-1.534;2023-06-19T00:15:02;13;12;
56688;PMS5003;42565;53.342;-1.534;2023-06-19T00:17:29;14;13;
56688;PMS5003;42565;53.342;-1.534;2023-06-19T00:19:57;14;14;
56688;PMS5003;42565;53.342;-1.534;2023-06-19T00:22:24;16;15;
56688;PMS5003;42565;53.342;-1.534;2023-06-19T00:24:52;14;14;
56688;PMS5003;42565;53.342;-1.534;2023-06-19T00:27:19;15;14;
56688;PMS5003;42565;53.342;-1.534;2023-06-19T00:29:46;16;15;
56688;PMS5003;42565;53.342;-1.534;2023-06-19T00:32:13;13;13;
56688;PMS5003;42565;53.342;-1.534;2023-06-19T00:34:41;12;12;
56688;PMS5003;42565;53.342;-1.534;2023-06-19T00:37:08;14;13;
56688;PMS5003;42565;53.342;-1.534;2023-06-19T00:39:35;15;15;
56688;PMS5003;42565;53.342;-1.534;2023-06-19T00:42:02;16;15;
56688;PMS5003;42565;53.342;-1.534;2023-06-19T00:44:29;16;14;
56688;PMS5003;42565;53.342;-1.534;2023-06-19T00:46:57;18;17;
56688;PMS5003;42565;53.342;-1.534;2023-06-19T00:49:28;14;14;
56688;PMS5003;42565;53.342;-1.534;2023-06-19T00:51:56;18;16;
56688;PMS5003;42565;53.342;-1.534;2023-06-19T00:54:23;18;17;
56688;PMS5003;42565;53.342;-1.534;2023-06-19T00:56:51;18;16;
56688;PMS5003;42565;53.342;-1.534;2023-06-19T00:59:18;16;16;
56688;PMS5003;42565;53.342;-1.534;2023-06-19T01:01:46;19;19;
56688;PMS5003;42565;53.342;-1.534;2023-06-19T01:04:13;18;17;
56688;PMS5003;42565;53.342;-1.534;2023-06-19T01:06:43;20;19;
56688;PMS5003;42565;53.342;-1.534;2023-06-19T01:09:17;18;16;
56688;PMS5003;42565;53.342;-1.534;2023-06-19T01:11:47;21;19;
56688;PMS5003;42565;53.342;-1.534;2023-06-19T01:14:19;24;23;
56688;PMS5003;42565;53.342;-1.534;2023-06-19T01:16:52;22;22;
56688;PMS5003;42565;53.342;-1.534;2023-06-19T01:19:19;20;20;
56688;PMS5003;42565;53.342;-1.534;2023-06-19T01:21:48;20;20;
56688;PMS5003;42565;53.342;-1.534;2023-06-19T01:24:47;16;16;
56688;PMS5003;42565;53.342;-1.534;2023-06-19T01:27:14;17;15;
56688;PMS5003;42565;53.342;-1.534;2023-06-19T01:29:41;15;14;
56688;PMS5003;42565;53.342;-1.534;2023-06-19T01:32:10;15;15;
56688;PMS5003;42565;53.342;-1.534;2023-06-19T01:34:41;16;14;
56688;PMS5003;42565;53.342;-1.534;2023-06-19T01:37:10;16;16;
56688;PMS5003;42565;53.342;-1.534;2023-06-19T01:39:37;22;21;
56688;PMS5003;42565;53.342;-1.534;2023-06-19T01:42:06;13;13;
56688;PMS5003;42565;53.342;-1.534;2023-06-19T01:44:35;15;14;
56688;PMS5003;42565;53.342;-1.534;2023-06-19T01:47:07;16;15;
56688;PMS5003;42565;53.342;-1.534;2023-06-19T01:49:35;20;18;
56688;PMS5003;42565;53.342;-1.534;2023-06-19T01:52:03;26;24;
56688;PMS5003;42565;53.342;-1.534;2023-06-19T01:54:30;21;21;
56688;PMS5003;42565;53.342;-1.534;2023-06-19T01:56:57;24;24;
56688;PMS5003;42565;53.342;-1.534;2023-06-19T01:59:25;25;24;
56688;PMS5003;42565;53.342;-1.534;2023-06-19T02:01:53;22;20;
56688;PMS5003;42565;53.342;-1.534;2023-06-19T02:04:20;21;21;
56688;PMS5003;42565;53.342;-1.534;2023-06-19T02:06:47;27;26;
56688;PMS5003;42565;53.342;-1.534;2023-06-19T02:09:14;24;22;
56688;PMS5003;42565;53.342;-1.534;2023-06-19T02:11:42;22;22;
56688;PMS5003;42565;53.342;-1.534;2023-06-19T02:14:09;25;21;
56688;PMS5003;42565;53.342;-1.534;2023-06-19T02:16:36;24;22;
56688;PMS5003;42565;53.342;-1.534;2023-06-19T02:19:03;21;20;
56688;PMS5003;42565;53.342;-1.534;2023-06-19T02:21:30;19;19;
56688;PMS5003;42565;53.342;-1.534;2023-06-19T02:23:57;22;20;
56688;PMS5003;42565;53.342;-1.534;2023-06-19T02:26:29;22;21;
56688;PMS5003;42565;53.342;-1.534;2023-06-19T02:28:56;23;22;
56688;PMS5003;42565;53.342;-1.534;2023-06-19T02:31:23;21;18;
56688;PMS5003;42565;53.342;-1.534;2023-06-19T02:33:51;21;19;
56688;PMS5003;42565;53.342;-1.534;2023-06-19T02:36:18;24;21;
56688;PMS5003;42565;53.342;-1.534;2023-06-19T02:38:45;20;20;
56688;PMS5003;42565;53.342;-1.534;2023-06-19T02:41:12;23;21;
56688;PMS5003;42565;53.342;-1.534;2023-06-19T02:43:39;20;20;
56688;PMS5003;42565;53.342;-1.534;2023-06-19T02:46:07;17;17;
56688;PMS5003;42565;53.342;-1.534;2023-06-19T02:48:34;19;19;
56688;PMS5003;42565;53.342;-1.534;2023-06-19T02:51:16;17;16;
56688;PMS5003;42565;53.342;-1.534;2023-06-19T02:53:43;21;19;
56688;PMS5003;42565;53.342;-1.534;2023-06-19T02:56:11;19;18;
56688;PMS5003;42565;53.342;-1.534;2023-06-19T02:58:38;21;19;
56688;PMS5003;42565;53.342;-1.534;2023-06-19T03:01:04;20;18;
56688;PMS5003;42565;53.342;-1.534;2023-06-19T03:03:31;20;20;
56688;PMS5003;42565;53.342;-1.534;2023-06-19T03:05:59;22;20;
56688;PMS5003;42565;53.342;-1.534;2023-06-19T03:08:26;18;18;
56688;PMS5003;42565;53.342;-1.534;2023-06-19T03:10:52;17;17;
56688;PMS5003;42565;53.342;-1.534;2023-06-19T03:13:20;17;17;
56688;PMS5003;42565;53.342;-1.534;2023-06-19T03:15:47;21;20;
56688;PMS5003;42565;53.342;-1.534;2023-06-19T03:18:14;16;16;
56688;PMS5003;42565;53.342;-1.534;2023-06-19T03:20:41;17;17;
56688;PMS5003;42565;53.342;-1.534;2023-06-19T03:23:07;17;16;
56688;PMS5003;42565;53.342;-1.534;2023-06-19T03:25:35;19;19;
56688;PMS5003;42565;53.342;-1.534;2023-06-19T03:28:02;17;17;
56688;PMS5003;42565;53.342;-1.534;2023-06-19T03:30:30;21;20;
56688;PMS5003;42565;53.342;-1.534;2023-06-19T03:32:57;18;17;
56688;PMS5003;42565;53.342;-1.534;2023-06-19T03:35:24;18;17;
56688;PMS5003;42565;53.342;-1.534;2023-06-19T03:37:51;16;16;
56688;PMS5003;42565;53.342;-1.534;2023-06-19T03:40:19;14;14;
56688;PMS5003;42565;53.342;-1.534;2023-06-19T03:42:51;16;15;
56688;PMS5003;42565;53.342;-1.534;2023-06-19T03:45:18;12;11;
56688;PMS5003;42565;53.342;-1.534;2023-06-19T03:47:45;18;16;
56688;PMS5003;42565;53.342;-1.534;2023-06-19T03:50:13;13;13;
56688;PMS5003;42565;53.342;-1.534;2023-06-19T03:52:40;14;12;
56688;PMS5003;42565;53.342;-1.534;2023-06-19T03:55:07;19;16;
56688;PMS5003;42565;53.342;-1.534;2023-06-19T03:57:35;13;12;
56688;PMS5003;42565;53.342;-1.534;2023-06-19T04:00:02;11;10;
56688;PMS5003;42565;53.342;-1.534;2023-06-19T04:02:40;11;11;
56688;PMS5003;42565;53.342;-1.534;2023-06-19T04:05:08;13;12;
56688;PMS5003;42565;53.342;-1.534;2023-06-19T04:07:35;11;11;
56688;PMS5003;42565;53.342;-1.534;2023-06-19T04:10:02;13;13;
56688;PMS5003;42565;53.342;-1.534;2023-06-19T04:12:29;11;11;
56688;PMS5003;42565;53.342;-1.534;2023-06-19T04:14:56;11;11;
56688;PMS5003;42565;53.342;-1.534;2023-06-19T04:17:24;14;14;
56688;PMS5003;42565;53.342;-1.534;2023-06-19T04:19:51;13;11;
56688;PMS5003;42565;53.342;-1.534;2023-06-19T04:22:19;14;12;
56688;PMS5003;42565;53.342;-1.534;2023-06-19T04:24:45;11;11;
56688;PMS5003;42565;53.342;-1.534;2023-06-19T04:27:38;11;11;
56688;PMS5003;42565;53.342;-1.534;2023-06-19T04:30:06;12;10;
56688;PMS5003;42565;53.342;-1.534;2023-06-19T04:32:33;15;12;
56688;PMS5003;42565;53.342;-1.534;2023-06-19T04:35:01;10;10;
56688;PMS5003;42565;53.342;-1.534;2023-06-19T04:37:28;11;11;
56688;PMS5003;42565;53.342;-1.534;2023-06-19T04:39:54;11;10;
56688;PMS5003;42565;53.342;-1.534;2023-06-19T04:42:22;10;10;
56688;PMS5003;42565;53.342;-1.534;2023-06-19T04:44:49;12;12;
56688;PMS5003;42565;53.342;-1.534;2023-06-19T04:47:16;16;14;
56688;PMS5003;42565;53.342;-1.534;2023-06-19T04:49:47;14;13;
56688;PMS5003;42565;53.342;-1.534;2023-06-19T04:52:14;14;12;
56688;PMS5003;42565;53.342;-1.534;2023-06-19T04:54:40;11;11;
56688;PMS5003;42565;53.342;-1.534;2023-06-19T04:57:08;13;13;
56688;PMS5003;42565;53.342;-1.534;2023-06-19T04:59:35;16;16;
56688;PMS5003;42565;53.342;-1.534;2023-06-19T05:02:03;14;13;
56688;PMS5003;42565;53.342;-1.534;2023-06-19T05:04:30;17;16;
56688;PMS5003;42565;53.342;-1.534;2023-06-19T05:06:57;16;14;
56688;PMS5003;42565;53.342;-1.534;2023-06-19T05:09:29;15;14;
56688;PMS5003;42565;53.342;-1.534;2023-06-19T05:11:57;14;14;
56688;PMS5003;42565;53.342;-1.534;2023-06-19T05:14:24;16;15;
56688;PMS5003;42565;53.342;-1.534;2023-06-19T05:16:51;13;13;
56688;PMS5003;42565;53.342;-1.534;2023-06-19T05:19:19;16;16;
56688;PMS5003;42565;53.342;-1.534;2023-06-19T05:21:46;13;12;
56688;PMS5003;42565;53.342;-1.534;2023-06-19T05:24:13;17;17;
56688;PMS5003;42565;53.342;-1.534;2023-06-19T05:26:45;16;16;
56688;PMS5003;42565;53.342;-1.534;2023-06-19T05:29:12;17;16;
56688;PMS5003;42565;53.342;-1.534;2023-06-19T05:31:40;18;18;
56688;PMS5003;42565;53.342;-1.534;2023-06-19T05:34:07;16;16;
56688;PMS5003;42565;53.342;-1.534;2023-06-19T05:36:34;13;13;
56688;PMS5003;42565;53.342;-1.534;2023-06-19T05:39:02;14;14;
56688;PMS5003;42565;53.342;-1.534;2023-06-19T05:41:29;17;15;
56688;PMS5003;42565;53.342;-1.534;2023-06-19T05:43:56;15;15;
56688;PMS5003;42565;53.342;-1.534;2023-06-19T05:46:23;19;18;
56688;PMS5003;42565;53.342;-1.534;2023-06-19T05:48:51;14;13;
56688;PMS5003;42565;53.342;-1.534;2023-06-19T05:51:18;14;13;
56688;PMS5003;42565;53.342;-1.534;2023-06-19T05:53:46;13;13;
56688;PMS5003;42565;53.342;-1.534;2023-06-19T05:56:13;14;13;
56688;PMS5003;42565;53.342;-1.534;2023-06-19T05:58:39;12;11;
56688;PMS5003;42565;53.342;-1.534;2023-06-19T06:01:07;17;15;
56688;PMS5003;42565;53.342;-1.534;2023-06-19T06:03:35;14;14;
56688;PMS5003;42565;53.342;-1.534;2023-06-19T06:06:02;13;13;
56688;PMS5003;42565;53.342;-1.534;2023-06-19T06:08:30;15;14;
56688;PMS5003;42565;53.342;-1.534;2023-06-19T06:10:57;13;13;
56688;PMS5003;42565;53.342;-1.534;2023-06-19T06:13:24;15;15;
56688;PMS5003;42565;53.342;-1.534;2023-06-19T06:15:51;12;11;
56688;PMS5003;42565;53.342;-1.534;2023-06-19T06:18:19;16;13;
56688;PMS5003;42565;53.342;-1.534;2023-06-19T06:20:47;13;13;
56688;PMS5003;42565;53.342;-1.534;2023-06-19T06:23:14;12;10;
56688;PMS5003;42565;53.342;-1.534;2023-06-19T06:25:41;12;12;
56688;PMS5003;42565;53.342;-1.534;2023-06-19T06:28:08;14;13;
56688;PMS5003;42565;53.342;-1.534;2023-06-19T06:30:35;14;13;
56688;PMS5003;42565;53.342;-1.534;2023-06-19T06:33:02;17;17;
56688;PMS5003;42565;53.342;-1.534;2023-06-19T06:35:29;13;13;
56688;PMS5003;42565;53.342;-1.534;2023-06-19T06:37:56;14;13;
56688;PMS5003;42565;53.342;-1.534;2023-06-19T06:40:23;16;14;
56688;PMS5003;42565;53.342;-1.534;2023-06-19T06:42:51;13;13;
56688;PMS5003;42565;53.342;-1.534;2023-06-19T06:45:19;16;16;
56688;PMS5003;42565;53.342;-1.534;2023-06-19T06:47:46;11;11;
56688;PMS5003;42565;53.342;-1.534;2023-06-19T06:50:14;12;11;
56688;PMS5003;42565;53.342;-1.534;2023-06-19T06:52:41;16;16;
56688;PMS5003;42565;53.342;-1.534;2023-06-19T06:55:08;15;15;
56688;PMS5003;42565;53.342;-1.534;2023-06-19T06:57:35;14;13;
56688;PMS5003;42565;53.342;-1.534;2023-06-19T07:00:02;14;14;
56688;PMS5003;42565;53.342;-1.534;2023-06-19T07:02:31;14;13;
56688;PMS5003;42565;53.342;-1.534;2023-06-19T07:04:59;14;14;
56688;PMS5003;42565;53.342;-1.534;2023-06-19T07:07:25;16;15;
56688;PMS5003;42565;53.342;-1.534;2023-06-19T07:09:52;11;11;
56688;PMS5003;42565;53.342;-1.534;2023-06-19T07:12:19;15;12;
56688;PMS5003;42565;53.342;-1.534;2023-06-19T07:14:46;14;14;
56688;PMS5003;42565;53.342;-1.534;2023-06-19T07:17:12;13;11;
56688;PMS5003;42565;53.342;-1.534;2023-06-19T07:19:39;13;13;
56688;PMS5003;42565;53.342;-1.534;2023-06-19T07:22:06;13;13;
56688;PMS5003;42565;53.342;-1.534;2023-06-19T07:24:34;13;13;
56688;PMS5003;42565;53.342;-1.534;2023-06-19T07:27:01;13;12;
56688;PMS5003;42565;53.342;-1.534;2023-06-19T07:29:29;12;11;
56688;PMS5003;42565;53.342;-1.534;2023-06-19T07:31:55;13;12;
56688;PMS5003;42565;53.342;-1.534;2023-06-19T07:34:23;13;12;
56688;PMS5003;42565;53.342;-1.534;2023-06-19T07:36:50;11;11;
56688;PMS5003;42565;53.342;-1.534;2023-06-19T07:39:17;11;10;
56688;PMS5003;42565;53.342;-1.534;2023-06-19T07:41:44;10;10;
56688;PMS5003;42565;53.342;-1.534;2023-06-19T07:44:11;12;10;
56688;PMS5003;42565;53.342;-1.534;2023-06-19T07:46:38;9;9;
56688;PMS5003;42565;53.342;-1.534;2023-06-19T07:49:05;11;10;
56688;PMS5003;42565;53.342;-1.534;2023-06-19T07:51:32;12;12;
56688;PMS5003;42565;53.342;-1.534;2023-06-19T07:53:58;10;9;
56688;PMS5003;42565;53.342;-1.534;2023-06-19T07:56:26;9;9;
56688;PMS5003;42565;53.342;-1.534;2023-06-19T07:58:52;12;11;
56688;PMS5003;42565;53.342;-1.534;2023-06-19T08:01:20;9;8;
56688;PMS5003;42565;53.342;-1.534;2023-06-19T08:03:47;11;10;
56688;PMS5003;42565;53.342;-1.534;2023-06-19T08:06:14;9;9;
56688;PMS5003;42565;53.342;-1.534;2023-06-19T08:08:41;13;12;
56688;PMS5003;42565;53.342;-1.534;2023-06-19T08:11:09;8;7;
56688;PMS5003;42565;53.342;-1.534;2023-06-19T08:13:35;10;10;
56688;PMS5003;42565;53.342;-1.534;2023-06-19T08:16:03;11;9;
56688;PMS5003;42565;53.342;-1.534;2023-06-19T08:18:31;10;9;
56688;PMS5003;42565;53.342;-1.534;2023-06-19T08:20:58;12;10;
56688;PMS5003;42565;53.342;-1.534;2023-06-19T08:23:25;10;9;
56688;PMS5003;42565;53.342;-1.534;2023-06-19T08:25:52;9;9;
56688;PMS5003;42565;53.342;-1.534;2023-06-19T08:28:35;10;10;
56688;PMS5003;42565;53.342;-1.534;2023-06-19T08:31:03;10;9;
56688;PMS5003;42565;53.342;-1.534;2023-06-19T08:33:30;9;8;
56688;PMS5003;42565;53.342;-1.534;2023-06-19T08:35:57;9;8;
56688;PMS5003;42565;53.342;-1.534;2023-06-19T08:38:24;11;10;
56688;PMS5003;42565;53.342;-1.534;2023-06-19T08:40:51;8;8;
56688;PMS5003;42565;53.342;-1.534;2023-06-19T08:43:19;8;8;
56688;PMS5003;42565;53.342;-1.534;2023-06-19T08:45:52;8;7;
56688;PMS5003;42565;53.342;-1.534;2023-06-19T08:48:25;8;7;
56688;PMS5003;42565;53.342;-1.534;2023-06-19T08:50:51;9;9;
56688;PMS5003;42565;53.342;-1.534;2023-06-19T08:53:19;9;8;
56688;PMS5003;42565;53.342;-1.534;2023-06-19T08:55:46;8;7;
56688;PMS5003;42565;53.342;-1.534;2023-06-19T08:58:19;8;7;
56688;PMS5003;42565;53.342;-1.534;2023-06-19T09:00:48;10;10;
56688;PMS5003;42565;53.342;-1.534;2023-06-19T09:03:19;8;7;
56688;PMS5003;42565;53.342;-1.534;2023-06-19T09:05:47;7;7;
56688;PMS5003;42565;53.342;-1.534;2023-06-19T09:08:14;7;7;
56688;PMS5003;42565;53.342;-1.534;2023-06-19T09:10:42;8;8;
56688;PMS5003;42565;53.342;-1.534;2023-06-19T09:13:09;8;7;
56688;PMS5003;42565;53.342;-1.534;2023-06-19T09:15:37;8;8;
56688;PMS5003;42565;53.342;-1.534;2023-06-19T09:18:06;8;7;
56688;PMS5003;42565;53.342;-1.534;2023-06-19T09:20:35;7;7;
56688;PMS5003;42565;53.342;-1.534;2023-06-19T09:23:04;8;7;
56688;PMS5003;42565;53.342;-1.534;2023-06-19T09:25:32;8;8;
56688;PMS5003;42565;53.342;-1.534;2023-06-19T09:28:16;7;7;
56688;PMS5003;42565;53.342;-1.534;2023-06-19T09:30:51;9;8;
56688;PMS5003;42565;53.342;-1.534;2023-06-19T09:33:19;9;8;
56688;PMS5003;42565;53.342;-1.534;2023-06-19T09:35:47;7;7;
56688;PMS5003;42565;53.342;-1.534;2023-06-19T09:38:17;5;5;
56688;PMS5003;42565;53.342;-1.534;2023-06-19T09:40:46;8;8;
56688;PMS5003;42565;53.342;-1.534;2023-06-19T09:43:15;9;8;
56688;PMS5003;42565;53.342;-1.534;2023-06-19T09:43:23;9;8;
56688;PMS5003;42565;53.342;-1.534;2023-06-19T09:45:54;7;7;
56688;PMS5003;42565;53.342;-1.534;2023-06-19T09:48:24;7;6;
56688;PMS5003;42565;53.342;-1.534;2023-06-19T09:51:00;6;6;
56688;PMS5003;42565;53.342;-1.534;2023-06-19T09:53:29;5;5;
56688;PMS5003;42565;53.342;-1.534;2023-06-19T09:55:58;6;5;
56688;PMS5003;42565;53.342;-1.534;2023-06-19T09:58:25;5;4;
56688;PMS5003;42565;53.342;-1.534;2023-06-19T10:00:53;7;7;
56688;PMS5003;42565;53.342;-1.534;2023-06-19T10:03:29;4;4;
56688;PMS5003;42565;53.342;-1.534;2023-06-19T10:05:57;6;5;
56688;PMS5003;42565;53.342;-1.534;2023-06-19T10:08:29;5;5;
56688;PMS5003;42565;53.342;-1.534;2023-06-19T10:10:57;6;6;
56688;PMS5003;42565;53.342;-1.534;2023-06-19T10:13:36;6;6;
56688;PMS5003;42565;53.342;-1.534;2023-06-19T10:16:04;5;5;
56688;PMS5003;42565;53.342;-1.534;2023-06-19T10:18:32;5;4;
56688;PMS5003;42565;53.342;-1.534;2023-06-19T10:21:15;7;7;
56688;PMS5003;42565;53.342;-1.534;2023-06-19T10:23:43;6;5;
56688;PMS5003;42565;53.342;-1.534;2023-06-19T10:26:28;5;5;
56688;PMS5003;42565;53.342;-1.534;2023-06-19T10:28:57;8;8;
56688;PMS5003;42565;53.342;-1.534;2023-06-19T10:31:24;8;8;
56688;PMS5003;42565;53.342;-1.534;2023-06-19T10:33:51;8;8;
56688;PMS5003;42565;53.342;-1.534;2023-06-19T10:36:19;6;6;
56688;PMS5003;42565;53.342;-1.534;2023-06-19T10:38:47;8;8;
56688;PMS5003;42565;53.342;-1.534;2023-06-19T10:41:15;8;8;
56688;PMS5003;42565;53.342;-1.534;2023-06-19T10:43:51;7;7;
56688;PMS5003;42565;53.342;-1.534;2023-06-19T10:46:20;6;6;
56688;PMS5003;42565;53.342;-1.534;2023-06-19T10:48:48;7;6;
56688;PMS5003;42565;53.342;-1.534;2023-06-19T10:51:17;9;8;
56688;PMS5003;42565;53.342;-1.534;2023-06-19T10:53:44;8;7;
56688;PMS5003;42565;53.342;-1.534;2023-06-19T10:56:12;6;6;
56688;PMS5003;42565;53.342;-1.534;2023-06-19T10:58:40;6;6;
56688;PMS5003;42565;53.342;-1.534;2023-06-19T11:01:07;5;4;
56688;PMS5003;42565;53.342;-1.534;2023-06-19T11:03:35;9;7;
56688;PMS5003;42565;53.342;-1.534;2023-06-19T11:06:02;7;7;
56688;PMS5003;42565;53.342;-1.534;2023-06-19T11:08:30;6;5;
56688;PMS5003;42565;53.342;-1.534;2023-06-19T11:10:56;4;4;
56688;PMS5003;42565;53.342;-1.534;2023-06-19T11:13:27;5;5;
56688;PMS5003;42565;53.342;-1.534;2023-06-19T11:15:54;6;6;
56688;PMS5003;42565;53.342;-1.534;2023-06-19T11:18:24;6;5;
56688;PMS5003;42565;53.342;-1.534;2023-06-19T11:20:51;6;6;
56688;PMS5003;42565;53.342;-1.534;2023-06-19T11:23:25;6;6;
56688;PMS5003;42565;53.342;-1.534;2023-06-19T11:25:53;6;6;
56688;PMS5003;42565;53.342;-1.534;2023-06-19T11:28:20;6;6;
56688;PMS5003;42565;53.342;-1.534;2023-06-19T11:30:48;6;6;
56688;PMS5003;42565;53.342;-1.534;2023-06-19T11:33:16;7;6;
56688;PMS5003;42565;53.342;-1.534;2023-06-19T11:35:47;6;6;
56688;PMS5003;42565;53.342;-1.534;2023-06-19T11:38:16;7;6;
56688;PMS5003;42565;53.342;-1.534;2023-06-19T11:40:44;7;6;
56688;PMS5003;42565;53.342;-1.534;2023-06-19T11:43:12;7;7;
56688;PMS5003;42565;53.342;-1.534;2023-06-19T11:45:50;8;6;
56688;PMS5003;42565;53.342;-1.534;2023-06-19T11:48:21;8;7;
56688;PMS5003;42565;53.342;-1.534;2023-06-19T11:50:49;7;6;
56688;PMS5003;42565;53.342;-1.534;2023-06-19T11:53:18;5;5;
56688;PMS5003;42565;53.342;-1.534;2023-06-19T11:55:45;6;6;
56688;PMS5003;42565;53.342;-1.534;2023-06-19T11:58:12;8;8;
56688;PMS5003;42565;53.342;-1.534;2023-06-19T12:00:39;5;5;
56688;PMS5003;42565;53.342;-1.534;2023-06-19T12:03:07;6;6;
56688;PMS5003;42565;53.342;-1.534;2023-06-19T12:05:34;5;5;
56688;PMS5003;42565;53.342;-1.534;2023-06-19T12:08:02;5;5;
56688;PMS5003;42565;53.342;-1.534;2023-06-19T12:10:29;5;4;
56688;PMS5003;42565;53.342;-1.534;2023-06-19T12:12:57;5;5;
56688;PMS5003;42565;53.342;-1.534;2023-06-19T12:15:24;6;6;
56688;PMS5003;42565;53.342;-1.534;2023-06-19T12:17:52;7;6;
56688;PMS5003;42565;53.342;-1.534;2023-06-19T12:20:19;6;5;
56688;PMS5003;42565;53.342;-1.534;2023-06-19T12:22:46;7;6;
56688;PMS5003;42565;53.342;-1.534;2023-06-19T12:25:13;5;4;
56688;PMS5003;42565;53.342;-1.534;2023-06-19T12:27:40;6;4;
56688;PMS5003;42565;53.342;-1.534;2023-06-19T12:30:08;6;6;
56688;PMS5003;42565;53.342;-1.534;2023-06-19T12:32:36;10;8;
56688;PMS5003;42565;53.342;-1.534;2023-06-19T12:35:03;7;7;
56688;PMS5003;42565;53.342;-1.534;2023-06-19T12:37:31;9;8;
56688;PMS5003;42565;53.342;-1.534;2023-06-19T12:39:57;6;6;
56688;PMS5003;42565;53.342;-1.534;2023-06-19T12:42:25;10;10;
56688;PMS5003;42565;53.342;-1.534;2023-06-19T12:44:52;7;5;
56688;PMS5003;42565;53.342;-1.534;2023-06-19T12:47:19;10;8;
56688;PMS5003;42565;53.342;-1.534;2023-06-19T12:49:46;5;5;
56688;PMS5003;42565;53.342;-1.534;2023-06-19T12:52:14;6;6;
56688;PMS5003;42565;53.342;-1.534;2023-06-19T12:54:42;7;7;
56688;PMS5003;42565;53.342;-1.534;2023-06-19T12:57:14;8;8;
56688;PMS5003;42565;53.342;-1.534;2023-06-19T13:00:41;8;7;
56688;PMS5003;42565;53.342;-1.534;2023-06-19T13:03:14;9;8;
56688;PMS5003;42565;53.342;-1.534;2023-06-19T13:05:41;6;6;
56688;PMS5003;42565;53.342;-1.534;2023-06-19T13:08:09;9;8;
56688;PMS5003;42565;53.342;-1.534;2023-06-19T13:10:36;8;7;
56688;PMS5003;42565;53.342;-1.534;2023-06-19T13:13:04;9;8;
56688;PMS5003;42565;53.342;-1.534;2023-06-19T13:15:31;8;7;
56688;PMS5003;42565;53.342;-1.534;2023-06-19T13:17:59;7;7;
56688;PMS5003;42565;53.342;-1.534;2023-06-19T13:20:26;10;9;
56688;PMS5003;42565;53.342;-1.534;2023-06-19T13:22:54;8;8;
56688;PMS5003;42565;53.342;-1.534;2023-06-19T13:25:21;10;10;
56688;PMS5003;42565;53.342;-1.534;2023-06-19T13:27:48;9;9;
56688;PMS5003;42565;53.342;-1.534;2023-06-19T13:30:16;8;8;
56688;PMS5003;42565;53.342;-1.534;2023-06-19T13:32:43;9;7;
56688;PMS5003;42565;53.342;-1.534;2023-06-19T13:35:10;8;8;
56688;PMS5003;42565;53.342;-1.534;2023-06-19T13:37:38;7;6;
56688;PMS5003;42565;53.342;-1.534;2023-06-19T13:40:06;8;8;
56688;PMS5003;42565;53.342;-1.534;2023-06-19T13:42:33;9;8;
56688;PMS5003;42565;53.342;-1.534;2023-06-19T13:45:01;6;6;
56688;PMS5003;42565;53.342;-1.534;2023-06-19T13:47:28;7;7;
56688;PMS5003;42565;53.342;-1.534;2023-06-19T13:49:56;7;7;
56688;PMS5003;42565;53.342;-1.534;2023-06-19T13:52:23;5;5;
56688;PMS5003;42565;53.342;-1.534;2023-06-19T13:54:51;7;6;
56688;PMS5003;42565;53.342;-1.534;2023-06-19T13:57:39;7;7;
56688;PMS5003;42565;53.342;-1.534;2023-06-19T14:00:06;8;8;
56688;PMS5003;42565;53.342;-1.534;2023-06-19T14:02:44;7;6;
56688;PMS5003;42565;53.342;-1.534;2023-06-19T14:05:11;5;5;
56688;PMS5003;42565;53.342;-1.534;2023-06-19T14:07:39;5;5;
56688;PMS5003;42565;53.342;-1.534;2023-06-19T14:10:08;6;6;
56688;PMS5003;42565;53.342;-1.534;2023-06-19T14:12:35;9;7;
56688;PMS5003;42565;53.342;-1.534;2023-06-19T14:15:02;8;8;
56688;PMS5003;42565;53.342;-1.534;2023-06-19T14:17:32;7;6;
56688;PMS5003;42565;53.342;-1.534;2023-06-19T14:19:59;6;6;
56688;PMS5003;42565;53.342;-1.534;2023-06-19T14:22:26;6;6;
56688;PMS5003;42565;53.342;-1.534;2023-06-19T14:24:53;7;6;
56688;PMS5003;42565;53.342;-1.534;2023-06-19T14:27:20;6;6;
56688;PMS5003;42565;53.342;-1.534;2023-06-19T14:29:47;5;5;
56688;PMS5003;42565;53.342;-1.534;2023-06-19T14:32:15;5;5;
56688;PMS5003;42565;53.342;-1.534;2023-06-19T14:34:42;6;5;
56688;PMS5003;42565;53.342;-1.534;2023-06-19T14:37:09;7;6;
56688;PMS5003;42565;53.342;-1.534;2023-06-19T14:39:36;7;6;
56688;PMS5003;42565;53.342;-1.534;2023-06-19T14:42:04;6;5;
56688;PMS5003;42565;53.342;-1.534;2023-06-19T14:44:31;6;6;
56688;PMS5003;42565;53.342;-1.534;2023-06-19T14:46:59;4;4;
56688;PMS5003;42565;53.342;-1.534;2023-06-19T14:49:26;5;5;
56688;PMS5003;42565;53.342;-1.534;2023-06-19T14:51:54;6;5;
56688;PMS5003;42565;53.342;-1.534;2023-06-19T14:54:21;7;6;
56688;PMS5003;42565;53.342;-1.534;2023-06-19T14:56:49;4;4;
56688;PMS5003;42565;53.342;-1.534;2023-06-19T14:59:17;4;4;
56688;PMS5003;42565;53.342;-1.534;2023-06-19T15:01:44;4;4;
56688;PMS5003;42565;53.342;-1.534;2023-06-19T15:04:12;4;4;
56688;PMS5003;42565;53.342;-1.534;2023-06-19T15:06:49;4;4;
56688;PMS5003;42565;53.342;-1.534;2023-06-19T15:09:17;3;3;
56688;PMS5003;42565;53.342;-1.534;2023-06-19T15:11:44;4;4;
56688;PMS5003;42565;53.342;-1.534;2023-06-19T15:14:12;3;3;
56688;PMS5003;42565;53.342;-1.534;2023-06-19T15:16:39;5;5;
56688;PMS5003;42565;53.342;-1.534;2023-06-19T15:19:07;5;5;
56688;PMS5003;42565;53.342;-1.534;2023-06-19T15:21:34;4;4;
56688;PMS5003;42565;53.342;-1.534;2023-06-19T15:24:02;4;4;
56688;PMS5003;42565;53.342;-1.534;2023-06-19T15:26:29;4;4;
56688;PMS5003;42565;53.342;-1.534;2023-06-19T15:28:56;2;2;
56688;PMS5003;42565;53.342;-1.534;2023-06-19T15:31:25;5;5;
56688;PMS5003;42565;53.342;-1.534;2023-06-19T15:33:57;4;3;
56688;PMS5003;42565;53.342;-1.534;2023-06-19T15:37:01;3;3;
56688;PMS5003;42565;53.342;-1.534;2023-06-19T15:39:27;3;3;
56688;PMS5003;42565;53.342;-1.534;2023-06-19T15:41:54;3;3;
56688;PMS5003;42565;53.342;-1.534;2023-06-19T15:44:23;4;4;
56688;PMS5003;42565;53.342;-1.534;2023-06-19T15:46:50;3;3;
56688;PMS5003;42565;53.342;-1.534;2023-06-19T15:49:17;4;3;
56688;PMS5003;42565;53.342;-1.534;2023-06-19T15:51:44;5;4;
56688;PMS5003;42565;53.342;-1.534;2023-06-19T15:54:12;3;3;
56688;PMS5003;42565;53.342;-1.534;2023-06-19T15:56:44;4;4;
56688;PMS5003;42565;53.342;-1.534;2023-06-19T15:59:11;2;2;
56688;PMS5003;42565;53.342;-1.534;2023-06-19T16:01:38;4;4;
56688;PMS5003;42565;53.342;-1.534;2023-06-19T16:04:05;5;4;
56688;PMS5003;42565;53.342;-1.534;2023-06-19T16:06:37;4;4;
56688;PMS5003;42565;53.342;-1.534;2023-06-19T16:09:04;3;3;
56688;PMS5003;42565;53.342;-1.534;2023-06-19T16:11:31;3;3;
56688;PMS5003;42565;53.342;-1.534;2023-06-19T16:13:59;4;4;
56688;PMS5003;42565;53.342;-1.534;2023-06-19T16:16:26;4;3;
56688;PMS5003;42565;53.342;-1.534;2023-06-19T16:19:03;4;4;
56688;PMS5003;42565;53.342;-1.534;2023-06-19T16:21:46;4;3;